sensor_id;sensor_type;location;lat;lon;timestamp;temperature;humidity
46217;DHT22;47258;59.424;13.482;2024-03-29T20:04:34;5.90;99.90
46217;DHT22;47258;59.424;13.482;2024-03-29T20:06:59;5.90;99.90
46217;DHT22;47258;59.424;13.482;2024-03-29T20:09:25;6.00;99.90
46217;DHT22;47258;59.424;13.482;2024-03-29T20:11:52;6.00;99.90
46217;DHT22;47258;59.424;13.482;2024-03-29T20:14:17;6.10;99.90
46217;DHT22;47258;59.424;13.482;2024-03-29T20:16:46;6.20;99.90
46217;DHT22;47258;59.424;13.482;2024-03-29T20:19:12;6.30;99.90
46217;DHT22;47258;59.424;13.482;2024-03-29T20:21:38;6.30;99.90
46217;DHT22;47258;59.424;13.482;2024-03-29T20:24:04;6.40;99.90
46217;DHT22;47258;59.424;13.482;2024-03-29T20:26:30;6.50;99.90
46217;DHT22;47258;59.424;13.482;2024-03-29T20:28:55;6.60;99.90
46217;DHT22;47258;59.424;13.482;2024-03-29T20:31:21;6.70;99.90
46217;DHT22;47258;59.424;13.482;2024-03-29T20:33:46;6.80;99.90
46217;DHT22;47258;59.424;13.482;2024-03-29T20:36:13;6.80;99.90
46217;DHT22;47258;59.424;13.482;2024-03-29T20:38:39;6.90;99.90
46217;DHT22;47258;59.424;13.482;2024-03-29T20:41:04;7.00;99.90
46217;DHT22;47258;59.424;13.482;2024-03-29T20:43:30;7.00;99.90
46217;DHT22;47258;59.424;13.482;2024-03-29T20:45:56;7.00;99.90
46217;DHT22;47258;59.424;13.482;2024-03-29T20:48:23;7.00;99.90
46217;DHT22;47258;59.424;13.482;2024-03-29T20:50:57;7.00;99.90
46217;DHT22;47258;59.424;13.482;2024-03-29T20:53:23;7.00;99.90
46217;DHT22;47258;59.424;13.482;2024-03-29T20:55:48;7.00;99.90
46217;DHT22;47258;59.424;13.482;2024-03-29T20:58:14;7.00;99.90
46217;DHT22;47258;59.424;13.482;2024-03-29T21:00:41;7.00;99.90
46217;DHT22;47258;59.424;13.482;2024-03-29T21:03:07;7.00;99.90
46217;DHT22;47258;59.424;13.482;2024-03-29T21:05:51;7.00;99.90
46217;DHT22;47258;59.424;13.482;2024-03-29T21:08:17;7.00;99.90
46217;DHT22;47258;59.424;13.482;2024-03-29T21:10:43;7.00;99.90
46217;DHT22;47258;59.424;13.482;2024-03-29T21:13:08;6.90;99.90
46217;DHT22;47258;59.424;13.482;2024-03-29T21:15:34;6.90;99.90
46217;DHT22;47258;59.424;13.482;2024-03-29T21:18:00;6.90;99.90
46217;DHT22;47258;59.424;13.482;2024-03-29T21:20:28;6.90;99.90
46217;DHT22;47258;59.424;13.482;2024-03-29T21:22:56;6.90;99.90
46217;DHT22;47258;59.424;13.482;2024-03-29T21:25:23;6.90;99.90
46217;DHT22;47258;59.424;13.482;2024-03-29T21:27:50;6.90;99.90
46217;DHT22;47258;59.424;13.482;2024-03-29T21:30:16;6.90;99.90
46217;DHT22;47258;59.424;13.482;2024-03-29T21:32:47;6.90;99.90
46217;DHT22;47258;59.424;13.482;2024-03-29T21:35:15;7.00;99.90
46217;DHT22;47258;59.424;13.482;2024-03-29T21:37:41;7.00;99.90
46217;DHT22;47258;59.424;13.482;2024-03-29T21:40:07;7.00;99.90
46217;DHT22;47258;59.424;13.482;2024-03-29T21:42:35;7.00;99.90
46217;DHT22;47258;59.424;13.482;2024-03-29T21:45:00;7.00;99.90
46217;DHT22;47258;59.424;13.482;2024-03-29T21:47:26;7.10;99.90
46217;DHT22;47258;59.424;13.482;2024-03-29T21:49:52;7.10;99.90
46217;DHT22;47258;59.424;13.482;2024-03-29T21:52:18;7.20;99.90
46217;DHT22;47258;59.424;13.482;2024-03-29T21:54:44;7.20;99.90
46217;DHT22;47258;59.424;13.482;2024-03-29T21:57:11;7.30;99.90
46217;DHT22;47258;59.424;13.482;2024-03-29T21:59:40;7.40;99.90
46217;DHT22;47258;59.424;13.482;2024-03-29T22:02:06;7.40;99.90
46217;DHT22;47258;59.424;13.482;2024-03-29T22:04:32;7.50;99.90
46217;DHT22;47258;59.424;13.482;2024-03-29T22:07:02;7.60;99.90
46217;DHT22;47258;59.424;13.482;2024-03-29T22:09:29;7.60;99.90
46217;DHT22;47258;59.424;13.482;2024-03-29T22:11:54;7.60;99.90
46217;DHT22;47258;59.424;13.482;2024-03-29T22:14:20;7.70;99.90
46217;DHT22;47258;59.424;13.482;2024-03-29T22:16:46;7.70;99.90
46217;DHT22;47258;59.424;13.482;2024-03-29T22:19:12;7.70;99.90
46217;DHT22;47258;59.424;13.482;2024-03-29T22:21:38;7.80;99.90
46217;DHT22;47258;59.424;13.482;2024-03-29T22:24:05;7.80;99.90
46217;DHT22;47258;59.424;13.482;2024-03-29T22:26:31;7.80;99.90
46217;DHT22;47258;59.424;13.482;2024-03-29T22:28:57;7.80;99.90
46217;DHT22;47258;59.424;13.482;2024-03-29T22:31:23;7.80;99.90
46217;DHT22;47258;59.424;13.482;2024-03-29T22:33:49;7.80;99.90
46217;DHT22;47258;59.424;13.482;2024-03-29T22:36:15;7.70;99.90
46217;DHT22;47258;59.424;13.482;2024-03-29T22:38:41;7.60;99.90
46217;DHT22;47258;59.424;13.482;2024-03-29T22:41:07;7.50;99.90
46217;DHT22;47258;59.424;13.482;2024-03-29T22:43:33;7.40;99.90
46217;DHT22;47258;59.424;13.482;2024-03-29T22:45:58;7.30;99.90
46217;DHT22;47258;59.424;13.482;2024-03-29T22:48:24;7.20;99.90
46217;DHT22;47258;59.424;13.482;2024-03-29T22:50:51;7.10;99.90
46217;DHT22;47258;59.424;13.482;2024-03-29T22:53:18;7.00;99.90
46217;DHT22;47258;59.424;13.482;2024-03-29T22:55:44;6.90;99.90
46217;DHT22;47258;59.424;13.482;2024-03-29T22:58:11;6.80;99.90
46217;DHT22;47258;59.424;13.482;2024-03-29T23:00:36;6.80;99.90
46217;DHT22;47258;59.424;13.482;2024-03-29T23:03:04;6.60;99.90
46217;DHT22;47258;59.424;13.482;2024-03-29T23:05:30;6.50;99.90
46217;DHT22;47258;59.424;13.482;2024-03-29T23:07:57;6.40;99.90
46217;DHT22;47258;59.424;13.482;2024-03-29T23:10:23;6.30;99.90
46217;DHT22;47258;59.424;13.482;2024-03-29T23:12:49;6.20;99.90
46217;DHT22;47258;59.424;13.482;2024-03-29T23:15:16;6.10;99.90
46217;DHT22;47258;59.424;13.482;2024-03-29T23:17:42;6.00;99.90
46217;DHT22;47258;59.424;13.482;2024-03-29T23:20:11;6.00;99.90
46217;DHT22;47258;59.424;13.482;2024-03-29T23:22:38;5.90;99.90
46217;DHT22;47258;59.424;13.482;2024-03-29T23:25:05;5.80;99.90
46217;DHT22;47258;59.424;13.482;2024-03-29T23:27:32;5.70;99.90
46217;DHT22;47258;59.424;13.482;2024-03-29T23:29:58;5.60;99.90
46217;DHT22;47258;59.424;13.482;2024-03-29T23:32:24;5.50;99.90
46217;DHT22;47258;59.424;13.482;2024-03-29T23:34:50;5.40;99.90
46217;DHT22;47258;59.424;13.482;2024-03-29T23:37:15;5.30;99.90
46217;DHT22;47258;59.424;13.482;2024-03-29T23:39:41;5.20;99.90
46217;DHT22;47258;59.424;13.482;2024-03-29T23:42:07;5.20;99.90
46217;DHT22;47258;59.424;13.482;2024-03-29T23:44:32;5.10;99.90
46217;DHT22;47258;59.424;13.482;2024-03-29T23:46:58;5.10;99.90
46217;DHT22;47258;59.424;13.482;2024-03-29T23:49:24;5.10;99.90
46217;DHT22;47258;59.424;13.482;2024-03-29T23:51:50;5.10;99.90
46217;DHT22;47258;59.424;13.482;2024-03-29T23:54:16;5.10;99.90
46217;DHT22;47258;59.424;13.482;2024-03-29T23:56:41;5.10;99.90
46217;DHT22;47258;59.424;13.482;2024-03-29T23:59:07;5.10;99.90
